createdAt,value
2018-06-28T00:02:24.618Z,99181.46
2018-06-28T00:07:09.024Z,99184.95
2018-06-28T00:11:53.204Z,99179.55
2018-06-28T00:16:37.363Z,99191.09
2018-06-28T00:21:22.484Z,99195.48
2018-06-28T00:26:06.652Z,99167.60
2018-06-28T00:30:50.929Z,99170.08
2018-06-28T00:35:35.739Z,99165.33
2018-06-28T00:40:20.941Z,99182.14
2018-06-28T00:45:06.190Z,99203.95
2018-06-28T00:49:50.274Z,99220.88
2018-06-28T00:54:36.257Z,99234.66
2018-06-28T00:59:20.664Z,99255.31
2018-06-28T01:04:07.101Z,99259.88
2018-06-28T01:08:51.309Z,99265.22
2018-06-28T01:13:36.273Z,99265.27
2018-06-28T01:18:20.787Z,99241.67
2018-06-28T01:23:08.382Z,99208.28
2018-06-28T01:27:52.565Z,99181.44
2018-06-28T01:32:37.250Z,99155.36
2018-06-28T01:37:22.439Z,99130.92
2018-06-28T01:42:17.370Z,99098.86
2018-06-28T01:47:01.540Z,99059.22
2018-06-28T01:51:49.535Z,99006.77
2018-06-28T01:56:33.702Z,98977.65
2018-06-28T02:01:17.671Z,98953.20
2018-06-28T02:06:02.015Z,98938.46
2018-06-28T02:10:46.156Z,98927.67
2018-06-28T02:15:30.110Z,98931.02
2018-06-28T02:20:18.064Z,98943.23
2018-06-28T02:25:01.964Z,98932.52
2018-06-28T02:29:46.002Z,98932.78
2018-06-28T02:34:30.025Z,98952.34
2018-06-28T02:39:14.278Z,99006.08
2018-06-28T02:44:03.003Z,99039.58
2018-06-28T02:48:47.752Z,99043.03
2018-06-28T02:53:31.900Z,99052.70
2018-06-28T02:58:16.016Z,99036.33
2018-06-28T03:03:00.503Z,99040.08
2018-06-28T03:07:44.594Z,99062.05
2018-06-28T03:12:29.219Z,99082.41
2018-06-28T03:17:14.133Z,99116.00
2018-06-28T03:21:58.563Z,99128.96
2018-06-28T03:26:42.805Z,99115.00
2018-06-28T03:31:30.474Z,99116.48
2018-06-28T03:36:14.719Z,99130.28
2018-06-28T03:40:59.063Z,99108.83
2018-06-28T03:45:43.258Z,99108.95
2018-06-28T03:50:31.352Z,99109.12
2018-06-28T03:55:15.413Z,99099.69
2018-06-28T04:00:01.641Z,99111.64
2018-06-28T04:04:45.811Z,99105.86
2018-06-28T04:09:30.184Z,99107.12
2018-06-28T04:14:15.883Z,99105.20
2018-06-28T04:19:00.710Z,99094.48
2018-06-28T04:23:46.049Z,99089.08
2018-06-28T04:28:30.051Z,99089.98
2018-06-28T04:33:14.222Z,99090.16
2018-06-28T04:37:58.386Z,99093.06
2018-06-28T04:42:42.506Z,99086.06
2018-06-28T04:47:26.958Z,99081.97
2018-06-28T04:52:14.855Z,99079.17
2018-06-28T04:56:59.037Z,99077.24
2018-06-28T05:01:43.189Z,99086.92
2018-06-28T05:06:27.386Z,99091.52
2018-06-28T05:11:11.465Z,99093.58
2018-06-28T05:15:55.666Z,99097.72
2018-06-28T05:20:40.315Z,99091.61
2018-06-28T05:26:54.387Z,99096.22
2018-06-28T05:31:38.900Z,99100.73
2018-06-28T05:36:23.152Z,99102.92
2018-06-28T05:41:07.103Z,99101.34
2018-06-28T05:45:50.616Z,99102.44
2018-06-28T05:50:37.531Z,99099.44
2018-06-28T05:55:21.144Z,99108.28
2018-06-28T06:00:05.276Z,99114.77
2018-06-28T06:04:48.832Z,99103.92
2018-06-28T06:09:33.440Z,99112.98
2018-06-28T06:14:17.094Z,99110.74
2018-06-28T06:19:00.767Z,99105.83
2018-06-28T06:23:44.641Z,99108.63
2018-06-28T06:28:28.310Z,99108.61
2018-06-28T06:33:12.185Z,99116.19
2018-06-28T06:37:55.797Z,99106.81
2018-06-28T06:42:39.569Z,99104.73
2018-06-28T06:47:23.195Z,99095.45
2018-06-28T06:52:07.015Z,99092.01
2018-06-28T06:56:50.658Z,99107.82
2018-06-28T07:01:34.346Z,99100.41
2018-06-28T07:06:18.089Z,99108.87
2018-06-28T07:11:05.344Z,99104.66
2018-06-28T07:15:48.970Z,99113.16
2018-06-28T07:20:35.521Z,99103.66
2018-06-28T07:25:19.002Z,99096.24
2018-06-28T07:30:04.690Z,99096.20
2018-06-28T07:34:48.209Z,99087.47
2018-06-28T07:39:35.327Z,99080.19
2018-06-28T07:44:18.902Z,99078.50
2018-06-28T07:49:03.419Z,99081.36
2018-06-28T07:53:46.905Z,99079.67
2018-06-28T07:58:30.467Z,99070.58
2018-06-28T08:03:14.136Z,99070.61
2018-06-28T08:07:57.805Z,99077.47
2018-06-28T08:12:44.528Z,99070.03
2018-06-28T08:17:28.067Z,99072.67
2018-06-28T08:22:12.729Z,99070.34
2018-06-28T08:26:56.360Z,99072.03
2018-06-28T08:31:43.082Z,99076.10
2018-06-28T08:36:26.785Z,99069.47
2018-06-28T08:41:10.539Z,99060.89
2018-06-28T08:45:54.082Z,99073.66
2018-06-28T08:50:41.222Z,99069.94
2018-06-28T08:55:24.879Z,99079.98
2018-06-28T09:00:09.606Z,99061.63
2018-06-28T09:04:53.078Z,99059.34
2018-06-28T09:09:37.716Z,99062.45
2018-06-28T09:14:21.297Z,99065.52
2018-06-28T09:19:06.203Z,99058.67
2018-06-28T09:23:49.673Z,99054.74
2018-06-28T09:28:33.198Z,99051.94
2018-06-28T09:33:18.146Z,99054.75
2018-06-28T09:38:01.710Z,99055.70
2018-06-28T09:42:45.357Z,99046.84
2018-06-28T09:47:28.932Z,99059.84
2018-06-28T09:52:13.652Z,99060.28
2018-06-28T09:56:57.222Z,99057.77
2018-06-28T10:01:40.965Z,99054.72
2018-06-28T10:06:24.385Z,99058.09
2018-06-28T10:11:09.052Z,99049.75
2018-06-28T10:15:52.434Z,99042.69
2018-06-28T10:20:37.119Z,99040.59
2018-06-28T10:25:20.708Z,99026.83
2018-06-28T10:30:08.669Z,99019.73
2018-06-28T10:34:53.436Z,99014.42
2018-06-28T10:39:38.087Z,99010.89
2018-06-28T10:44:22.366Z,99003.63
2018-06-28T10:49:06.237Z,99002.89
2018-06-28T10:53:50.273Z,99003.16
2018-06-28T10:58:33.913Z,99009.47
2018-06-28T11:03:17.505Z,99013.58
2018-06-28T11:08:01.092Z,99009.82
2018-06-28T11:12:44.719Z,99007.98
2018-06-28T11:17:28.704Z,99008.05
2018-06-28T11:22:12.529Z,98997.86
2018-06-28T11:26:56.115Z,99004.53
2018-06-28T11:31:39.804Z,98999.00
2018-06-28T11:36:23.459Z,98996.33
2018-06-28T11:41:06.993Z,98994.91
2018-06-28T11:45:50.603Z,98992.30
2018-06-28T11:50:37.406Z,98988.39
2018-06-28T11:55:21.185Z,98997.64
2018-06-28T12:00:07.961Z,99006.46
2018-06-28T12:04:51.505Z,99006.19
2018-06-28T12:09:40.540Z,99005.39
2018-06-28T12:14:24.238Z,98990.94
2018-06-28T12:19:08.947Z,98987.80
2018-06-28T12:23:52.447Z,98992.66
2018-06-28T12:28:36.182Z,98999.98
2018-06-28T12:33:19.800Z,99003.80
2018-06-28T12:38:03.482Z,99006.92
2018-06-28T12:42:52.693Z,99002.84
2018-06-28T12:47:54.542Z,99008.73
2018-06-28T12:52:52.258Z,99007.36
2018-06-28T12:57:35.894Z,99000.52
2018-06-28T13:02:20.405Z,99005.73
2018-06-28T13:07:03.956Z,98997.52
2018-06-28T13:11:51.194Z,98995.50
2018-06-28T13:16:34.630Z,98984.14
2018-06-28T13:21:21.265Z,98976.83
2018-06-28T13:26:04.771Z,98982.17
2018-06-28T13:30:51.350Z,98992.47
2018-06-28T13:35:34.837Z,98988.75
2018-06-28T13:40:19.613Z,98971.81
2018-06-28T13:45:02.902Z,98970.27
2018-06-28T13:49:50.270Z,98964.78
2018-06-28T13:54:33.745Z,98965.29
2018-06-28T13:59:20.469Z,98971.16
2018-06-28T14:04:04.060Z,98963.64
2018-06-28T14:08:48.743Z,98956.39
2018-06-28T14:13:32.270Z,98976.62
2018-06-28T14:18:16.799Z,98970.64
2018-06-28T14:23:00.414Z,98984.94
2018-06-28T14:27:44.022Z,98968.84
2018-06-28T14:32:27.709Z,98958.64
2018-06-28T14:37:11.082Z,98955.64
2018-06-28T14:41:55.750Z,98961.58
2018-06-28T14:46:40.277Z,98962.76
2018-06-28T14:51:27.303Z,98940.08
2018-06-28T14:56:10.866Z,98930.84
2018-06-28T15:00:54.500Z,98923.22
2018-06-28T15:05:38.184Z,98931.66
2018-06-28T15:10:25.578Z,98927.03
2018-06-28T15:15:09.150Z,98917.09
2018-06-28T15:19:56.061Z,98907.47
2018-06-28T15:24:39.733Z,98931.73
2018-06-28T15:29:24.366Z,98934.42
2018-06-28T15:34:07.998Z,98940.47
2018-06-28T15:38:52.730Z,98949.47
2018-06-28T15:43:36.409Z,98947.38
2018-06-28T15:48:23.813Z,98955.18
2018-06-28T15:53:07.537Z,98944.89
2018-06-28T15:57:51.123Z,98950.16
2018-06-28T16:02:34.753Z,98944.67
2018-06-28T16:07:18.468Z,98936.17
2018-06-28T16:12:03.136Z,98926.23
2018-06-28T16:16:46.689Z,98942.86
2018-06-28T16:21:31.411Z,98949.14
2018-06-28T16:26:15.387Z,98952.44
2018-06-28T16:30:58.965Z,98948.77
2018-06-28T16:35:42.590Z,98967.66
2018-06-28T16:40:27.375Z,98969.87
2018-06-28T16:45:10.947Z,98971.21
2018-06-28T16:49:58.432Z,98964.16
2018-06-28T16:54:42.018Z,98968.57
2018-06-28T16:59:27.037Z,98981.59
2018-06-28T17:04:10.515Z,98973.87
2018-06-28T17:08:55.324Z,98981.42
2018-06-28T17:13:38.847Z,98980.34
2018-06-28T17:18:22.648Z,98986.76
2018-06-28T17:23:06.141Z,98993.33
2018-06-28T17:27:49.896Z,98997.70
2018-06-28T17:32:33.524Z,99027.63
2018-06-28T17:37:17.175Z,99046.25
2018-06-28T17:42:03.893Z,99062.48
2018-06-28T17:46:47.554Z,99032.01
2018-06-28T17:51:32.294Z,99035.31
2018-06-28T17:56:15.935Z,99034.69
2018-06-28T18:00:59.591Z,99041.55
2018-06-28T18:05:43.120Z,99032.14
2018-06-28T18:10:27.749Z,99005.16
2018-06-28T18:15:12.647Z,98991.97
2018-06-28T18:19:57.424Z,98984.16
2018-06-28T18:24:40.943Z,98961.10
2018-06-28T18:29:28.030Z,98986.45
2018-06-28T18:34:11.675Z,98975.23
2018-06-28T18:38:59.653Z,98968.78
2018-06-28T18:43:43.991Z,98969.27
2018-06-28T18:48:31.224Z,98978.09
2018-06-28T18:53:14.829Z,98995.42
2018-06-28T18:57:59.550Z,99011.55
2018-06-28T19:02:44.777Z,99013.16
2018-06-28T19:08:14.759Z,99029.52
2018-06-28T19:13:00.644Z,99031.31
2018-06-28T19:17:45.106Z,99017.95
2018-06-28T19:22:34.107Z,99018.30
2018-06-28T19:27:18.101Z,99011.91
2018-06-28T19:32:07.305Z,99021.38
2018-06-28T19:36:50.678Z,99024.69
2018-06-28T19:41:43.320Z,99021.39
2018-06-28T19:46:26.828Z,99051.34
2018-06-28T19:51:19.788Z,99041.75
2018-06-28T19:56:03.278Z,99046.96
2018-06-28T20:00:52.324Z,99042.35
2018-06-28T20:05:36.003Z,99044.11
2018-06-28T20:10:23.374Z,99049.11
2018-06-28T20:15:12.473Z,99047.73
2018-06-28T20:20:05.295Z,99046.80
2018-06-28T20:24:49.039Z,99049.52
2018-06-28T20:29:38.942Z,99047.07
2018-06-28T20:34:22.645Z,99058.03
2018-06-28T20:39:09.487Z,99067.96
2018-06-28T20:43:54.270Z,99049.31
2018-06-28T20:48:38.994Z,99061.13
2018-06-28T20:53:22.551Z,99067.66
2018-06-28T20:58:07.308Z,99079.98
2018-06-28T21:02:51.946Z,99081.24
2018-06-28T21:07:38.856Z,99069.83
2018-06-28T21:12:22.364Z,99068.23
2018-06-28T21:17:05.849Z,99085.53
2018-06-28T21:21:49.162Z,99079.06
2018-06-28T21:26:32.682Z,99083.09
2018-06-28T21:31:16.481Z,99077.67
2018-06-28T21:36:00.074Z,99067.31
2018-06-28T21:40:43.735Z,99071.98
2018-06-28T21:45:27.351Z,99070.47
2018-06-28T21:50:11.046Z,99076.68
2018-06-28T21:54:54.417Z,99088.17
2018-06-28T21:59:41.908Z,99072.48
2018-06-28T22:04:25.432Z,99064.65
2018-06-28T22:09:09.154Z,99064.68
2018-06-28T22:13:52.886Z,99061.87
2018-06-28T22:18:36.797Z,99079.13
2018-06-28T22:23:20.307Z,99071.49
2018-06-28T22:28:03.989Z,99073.53
2018-06-28T22:32:47.470Z,99067.78
2018-06-28T22:37:31.105Z,99064.14
2018-06-28T22:42:14.706Z,99056.08
2018-06-28T22:46:58.272Z,99050.52
2018-06-28T22:51:41.697Z,99030.94
2018-06-28T22:56:25.282Z,99029.62
2018-06-28T23:01:08.926Z,99027.78
2018-06-28T23:05:52.653Z,99019.30
2018-06-28T23:10:39.353Z,99017.24
2018-06-28T23:15:22.965Z,99022.97
2018-06-28T23:20:09.883Z,99021.95
2018-06-28T23:24:53.666Z,99024.66
2018-06-28T23:29:40.273Z,99027.56
2018-06-28T23:34:23.931Z,99032.53
2018-06-28T23:39:10.783Z,99030.26
2018-06-28T23:43:54.288Z,99025.23
2018-06-28T23:48:38.025Z,99029.00
2018-06-28T23:53:21.655Z,99020.61
2018-06-28T23:58:05.524Z,99032.22
